sensor_id;sensor_type;location;lat;lon;timestamp;P1;durP1;ratioP1;P2;durP2;ratioP2
37355;SDS011;48747;50.250;18.848;2023-08-24T00:01:16;14.47;;;6.95;;
37355;SDS011;48747;50.250;18.848;2023-08-24T00:03:19;10.98;;;6.62;;
37355;SDS011;48747;50.250;18.848;2023-08-24T00:05:25;11.35;;;7.22;;
37355;SDS011;48747;50.250;18.848;2023-08-24T00:07:28;15.98;;;7.70;;
37355;SDS011;48747;50.250;18.848;2023-08-24T00:09:31;13.68;;;8.15;;
37355;SDS011;48747;50.250;18.848;2023-08-24T00:11:34;12.98;;;7.70;;
37355;SDS011;48747;50.250;18.848;2023-08-24T00:13:38;12.63;;;7.03;;
37355;SDS011;48747;50.250;18.848;2023-08-24T00:15:41;15.25;;;7.90;;
37355;SDS011;48747;50.250;18.848;2023-08-24T00:17:44;12.47;;;7.55;;
37355;SDS011;48747;50.250;18.848;2023-08-24T00:19:47;17.67;;;7.60;;
37355;SDS011;48747;50.250;18.848;2023-08-24T00:21:51;14.45;;;7.65;;
37355;SDS011;48747;50.250;18.848;2023-08-24T00:23:54;12.25;;;7.25;;
37355;SDS011;48747;50.250;18.848;2023-08-24T00:25:57;13.75;;;7.92;;
37355;SDS011;48747;50.250;18.848;2023-08-24T00:28:00;14.33;;;7.15;;
37355;SDS011;48747;50.250;18.848;2023-08-24T00:30:04;17.52;;;7.95;;
37355;SDS011;48747;50.250;18.848;2023-08-24T00:32:08;15.53;;;7.55;;
37355;SDS011;48747;50.250;18.848;2023-08-24T00:34:11;12.33;;;7.37;;
37355;SDS011;48747;50.250;18.848;2023-08-24T00:36:14;13.78;;;7.58;;
37355;SDS011;48747;50.250;18.848;2023-08-24T00:38:19;10.35;;;5.87;;
37355;SDS011;48747;50.250;18.848;2023-08-24T00:40:22;13.15;;;7.15;;
37355;SDS011;48747;50.250;18.848;2023-08-24T00:42:26;12.45;;;6.72;;
37355;SDS011;48747;50.250;18.848;2023-08-24T00:44:29;13.25;;;7.00;;
37355;SDS011;48747;50.250;18.848;2023-08-24T00:46:32;12.07;;;6.30;;
37355;SDS011;48747;50.250;18.848;2023-08-24T00:48:36;12.03;;;6.35;;
37355;SDS011;48747;50.250;18.848;2023-08-24T00:50:39;10.65;;;6.12;;
37355;SDS011;48747;50.250;18.848;2023-08-24T00:52:42;11.00;;;6.67;;
37355;SDS011;48747;50.250;18.848;2023-08-24T00:54:46;11.05;;;6.60;;
37355;SDS011;48747;50.250;18.848;2023-08-24T00:56:50;14.58;;;6.42;;
37355;SDS011;48747;50.250;18.848;2023-08-24T00:58:53;13.43;;;6.22;;
37355;SDS011;48747;50.250;18.848;2023-08-24T01:00:57;10.05;;;6.15;;
37355;SDS011;48747;50.250;18.848;2023-08-24T01:03:00;10.03;;;5.90;;
37355;SDS011;48747;50.250;18.848;2023-08-24T01:05:03;11.33;;;6.53;;
37355;SDS011;48747;50.250;18.848;2023-08-24T01:07:08;13.88;;;6.75;;
37355;SDS011;48747;50.250;18.848;2023-08-24T01:09:12;16.15;;;6.92;;
37355;SDS011;48747;50.250;18.848;2023-08-24T01:13:37;10.82;;;6.05;;
37355;SDS011;48747;50.250;18.848;2023-08-24T01:15:50;12.73;;;6.55;;
37355;SDS011;48747;50.250;18.848;2023-08-24T01:17:54;18.40;;;6.90;;
37355;SDS011;48747;50.250;18.848;2023-08-24T01:20:01;13.48;;;6.87;;
37355;SDS011;48747;50.250;18.848;2023-08-24T01:22:08;13.58;;;6.25;;
37355;SDS011;48747;50.250;18.848;2023-08-24T01:24:20;11.57;;;6.95;;
37355;SDS011;48747;50.250;18.848;2023-08-24T01:26:27;13.85;;;6.55;;
37355;SDS011;48747;50.250;18.848;2023-08-24T01:28:31;10.53;;;6.22;;
37355;SDS011;48747;50.250;18.848;2023-08-24T01:30:35;11.50;;;6.80;;
37355;SDS011;48747;50.250;18.848;2023-08-24T01:32:38;11.75;;;6.50;;
37355;SDS011;48747;50.250;18.848;2023-08-24T01:34:42;11.10;;;6.50;;
37355;SDS011;48747;50.250;18.848;2023-08-24T01:36:45;12.07;;;7.33;;
37355;SDS011;48747;50.250;18.848;2023-08-24T01:38:51;9.90;;;6.65;;
37355;SDS011;48747;50.250;18.848;2023-08-24T01:43:03;11.50;;;7.22;;
37355;SDS011;48747;50.250;18.848;2023-08-24T01:45:08;14.55;;;7.12;;
37355;SDS011;48747;50.250;18.848;2023-08-24T01:47:14;14.45;;;7.22;;
37355;SDS011;48747;50.250;18.848;2023-08-24T01:49:19;15.78;;;6.78;;
37355;SDS011;48747;50.250;18.848;2023-08-24T01:51:23;15.90;;;7.53;;
37355;SDS011;48747;50.250;18.848;2023-08-24T01:53:27;15.95;;;7.45;;
37355;SDS011;48747;50.250;18.848;2023-08-24T01:55:32;19.30;;;7.20;;
37355;SDS011;48747;50.250;18.848;2023-08-24T01:57:35;14.55;;;6.58;;
37355;SDS011;48747;50.250;18.848;2023-08-24T01:59:38;15.50;;;6.97;;
37355;SDS011;48747;50.250;18.848;2023-08-24T02:01:41;11.18;;;6.92;;
37355;SDS011;48747;50.250;18.848;2023-08-24T02:03:44;12.33;;;6.67;;
37355;SDS011;48747;50.250;18.848;2023-08-24T02:05:47;16.32;;;6.80;;
37355;SDS011;48747;50.250;18.848;2023-08-24T02:07:50;14.50;;;6.70;;
37355;SDS011;48747;50.250;18.848;2023-08-24T02:09:53;13.38;;;7.10;;
37355;SDS011;48747;50.250;18.848;2023-08-24T02:11:56;14.40;;;6.00;;
37355;SDS011;48747;50.250;18.848;2023-08-24T02:13:59;15.15;;;6.90;;
37355;SDS011;48747;50.250;18.848;2023-08-24T02:16:03;16.80;;;6.85;;
37355;SDS011;48747;50.250;18.848;2023-08-24T02:18:07;15.45;;;6.97;;
37355;SDS011;48747;50.250;18.848;2023-08-24T02:20:10;12.47;;;6.72;;
37355;SDS011;48747;50.250;18.848;2023-08-24T02:22:13;17.48;;;7.12;;
37355;SDS011;48747;50.250;18.848;2023-08-24T02:24:16;11.78;;;6.70;;
37355;SDS011;48747;50.250;18.848;2023-08-24T02:26:19;12.35;;;6.50;;
37355;SDS011;48747;50.250;18.848;2023-08-24T02:28:22;11.85;;;7.00;;
37355;SDS011;48747;50.250;18.848;2023-08-24T02:30:25;13.93;;;6.67;;
37355;SDS011;48747;50.250;18.848;2023-08-24T02:32:28;12.13;;;6.78;;
37355;SDS011;48747;50.250;18.848;2023-08-24T02:34:31;14.20;;;7.17;;
37355;SDS011;48747;50.250;18.848;2023-08-24T02:36:34;20.32;;;7.25;;
37355;SDS011;48747;50.250;18.848;2023-08-24T02:38:38;13.58;;;6.55;;
37355;SDS011;48747;50.250;18.848;2023-08-24T02:40:41;13.45;;;6.80;;
37355;SDS011;48747;50.250;18.848;2023-08-24T02:42:44;13.53;;;6.87;;
37355;SDS011;48747;50.250;18.848;2023-08-24T02:44:47;13.40;;;6.87;;
37355;SDS011;48747;50.250;18.848;2023-08-24T02:46:50;12.13;;;6.70;;
37355;SDS011;48747;50.250;18.848;2023-08-24T02:48:53;16.07;;;6.97;;
37355;SDS011;48747;50.250;18.848;2023-08-24T02:50:59;17.17;;;6.90;;
37355;SDS011;48747;50.250;18.848;2023-08-24T02:53:04;16.65;;;7.15;;
37355;SDS011;48747;50.250;18.848;2023-08-24T02:55:07;16.82;;;7.95;;
37355;SDS011;48747;50.250;18.848;2023-08-24T02:57:11;15.00;;;7.37;;
37355;SDS011;48747;50.250;18.848;2023-08-24T02:59:14;16.77;;;6.85;;
37355;SDS011;48747;50.250;18.848;2023-08-24T03:01:17;20.27;;;7.87;;
37355;SDS011;48747;50.250;18.848;2023-08-24T03:03:20;15.45;;;7.47;;
37355;SDS011;48747;50.250;18.848;2023-08-24T03:05:23;15.90;;;7.22;;
37355;SDS011;48747;50.250;18.848;2023-08-24T03:07:26;15.18;;;7.40;;
37355;SDS011;48747;50.250;18.848;2023-08-24T03:09:29;16.55;;;7.58;;
37355;SDS011;48747;50.250;18.848;2023-08-24T03:11:32;14.25;;;7.60;;
37355;SDS011;48747;50.250;18.848;2023-08-24T03:13:36;13.48;;;7.87;;
37355;SDS011;48747;50.250;18.848;2023-08-24T03:15:40;15.35;;;7.67;;
37355;SDS011;48747;50.250;18.848;2023-08-24T03:17:43;14.65;;;8.00;;
37355;SDS011;48747;50.250;18.848;2023-08-24T03:19:46;11.57;;;7.53;;
37355;SDS011;48747;50.250;18.848;2023-08-24T03:21:49;17.77;;;7.95;;
37355;SDS011;48747;50.250;18.848;2023-08-24T03:23:52;16.62;;;8.48;;
37355;SDS011;48747;50.250;18.848;2023-08-24T03:25:56;15.53;;;7.95;;
37355;SDS011;48747;50.250;18.848;2023-08-24T03:27:59;15.35;;;9.28;;
37355;SDS011;48747;50.250;18.848;2023-08-24T03:30:02;14.05;;;8.23;;
37355;SDS011;48747;50.250;18.848;2023-08-24T03:32:06;17.57;;;9.08;;
37355;SDS011;48747;50.250;18.848;2023-08-24T03:34:09;18.80;;;9.53;;
37355;SDS011;48747;50.250;18.848;2023-08-24T03:36:12;23.67;;;9.65;;
37355;SDS011;48747;50.250;18.848;2023-08-24T03:38:15;15.88;;;8.10;;
37355;SDS011;48747;50.250;18.848;2023-08-24T03:40:18;17.95;;;9.03;;
37355;SDS011;48747;50.250;18.848;2023-08-24T03:42:21;19.92;;;9.50;;
37355;SDS011;48747;50.250;18.848;2023-08-24T03:44:24;26.20;;;8.83;;
37355;SDS011;48747;50.250;18.848;2023-08-24T03:46:27;18.45;;;8.48;;
37355;SDS011;48747;50.250;18.848;2023-08-24T03:48:31;18.57;;;8.78;;
37355;SDS011;48747;50.250;18.848;2023-08-24T03:50:34;15.83;;;8.78;;
37355;SDS011;48747;50.250;18.848;2023-08-24T03:52:37;14.90;;;8.13;;
37355;SDS011;48747;50.250;18.848;2023-08-24T03:54:40;15.95;;;8.03;;
37355;SDS011;48747;50.250;18.848;2023-08-24T03:56:43;19.20;;;8.18;;
37355;SDS011;48747;50.250;18.848;2023-08-24T03:58:46;19.77;;;8.93;;
37355;SDS011;48747;50.250;18.848;2023-08-24T04:00:50;16.30;;;7.75;;
37355;SDS011;48747;50.250;18.848;2023-08-24T04:02:55;20.68;;;7.83;;
37355;SDS011;48747;50.250;18.848;2023-08-24T04:04:58;12.98;;;7.67;;
37355;SDS011;48747;50.250;18.848;2023-08-24T04:07:01;13.30;;;7.50;;
37355;SDS011;48747;50.250;18.848;2023-08-24T04:09:05;15.60;;;7.42;;
37355;SDS011;48747;50.250;18.848;2023-08-24T04:11:08;14.25;;;7.60;;
37355;SDS011;48747;50.250;18.848;2023-08-24T04:13:11;18.40;;;8.35;;
37355;SDS011;48747;50.250;18.848;2023-08-24T04:15:14;15.83;;;8.55;;
37355;SDS011;48747;50.250;18.848;2023-08-24T04:17:17;15.80;;;8.63;;
37355;SDS011;48747;50.250;18.848;2023-08-24T04:19:20;17.35;;;9.18;;
37355;SDS011;48747;50.250;18.848;2023-08-24T04:21:23;16.15;;;7.95;;
37355;SDS011;48747;50.250;18.848;2023-08-24T04:23:27;19.70;;;8.63;;
37355;SDS011;48747;50.250;18.848;2023-08-24T04:25:30;14.53;;;7.40;;
37355;SDS011;48747;50.250;18.848;2023-08-24T04:27:33;15.60;;;7.22;;
37355;SDS011;48747;50.250;18.848;2023-08-24T04:29:36;16.97;;;6.70;;
37355;SDS011;48747;50.250;18.848;2023-08-24T04:31:40;17.57;;;7.53;;
37355;SDS011;48747;50.250;18.848;2023-08-24T04:33:43;17.15;;;6.97;;
37355;SDS011;48747;50.250;18.848;2023-08-24T04:35:47;16.02;;;6.72;;
37355;SDS011;48747;50.250;18.848;2023-08-24T04:37:51;21.25;;;6.72;;
37355;SDS011;48747;50.250;18.848;2023-08-24T04:39:54;23.20;;;6.78;;
37355;SDS011;48747;50.250;18.848;2023-08-24T04:41:57;15.45;;;6.70;;
37355;SDS011;48747;50.250;18.848;2023-08-24T04:44:00;16.73;;;6.87;;
37355;SDS011;48747;50.250;18.848;2023-08-24T04:46:03;21.85;;;7.37;;
37355;SDS011;48747;50.250;18.848;2023-08-24T04:48:07;19.32;;;6.62;;
37355;SDS011;48747;50.250;18.848;2023-08-24T04:50:10;17.02;;;7.40;;
37355;SDS011;48747;50.250;18.848;2023-08-24T04:52:13;20.08;;;7.33;;
37355;SDS011;48747;50.250;18.848;2023-08-24T04:54:16;26.42;;;8.15;;
37355;SDS011;48747;50.250;18.848;2023-08-24T04:56:19;18.27;;;7.87;;
37355;SDS011;48747;50.250;18.848;2023-08-24T04:58:23;19.92;;;8.33;;
37355;SDS011;48747;50.250;18.848;2023-08-24T05:00:26;19.60;;;8.18;;
37355;SDS011;48747;50.250;18.848;2023-08-24T05:02:29;17.07;;;8.35;;
37355;SDS011;48747;50.250;18.848;2023-08-24T05:04:32;16.60;;;7.97;;
37355;SDS011;48747;50.250;18.848;2023-08-24T05:06:35;14.30;;;8.35;;
37355;SDS011;48747;50.250;18.848;2023-08-24T05:08:38;16.87;;;8.58;;
37355;SDS011;48747;50.250;18.848;2023-08-24T05:10:41;15.93;;;8.60;;
37355;SDS011;48747;50.250;18.848;2023-08-24T05:12:45;20.60;;;9.55;;
37355;SDS011;48747;50.250;18.848;2023-08-24T05:14:48;20.35;;;8.50;;
37355;SDS011;48747;50.250;18.848;2023-08-24T05:16:51;15.18;;;8.65;;
37355;SDS011;48747;50.250;18.848;2023-08-24T05:18:54;18.75;;;8.33;;
37355;SDS011;48747;50.250;18.848;2023-08-24T05:20:57;14.45;;;8.05;;
37355;SDS011;48747;50.250;18.848;2023-08-24T05:23:00;19.05;;;8.70;;
37355;SDS011;48747;50.250;18.848;2023-08-24T05:25:03;17.52;;;8.60;;
37355;SDS011;48747;50.250;18.848;2023-08-24T05:27:07;21.27;;;8.95;;
37355;SDS011;48747;50.250;18.848;2023-08-24T05:29:10;24.43;;;10.00;;
37355;SDS011;48747;50.250;18.848;2023-08-24T05:31:13;17.77;;;9.30;;
37355;SDS011;48747;50.250;18.848;2023-08-24T05:33:16;16.15;;;8.93;;
37355;SDS011;48747;50.250;18.848;2023-08-24T05:35:19;20.80;;;9.25;;
37355;SDS011;48747;50.250;18.848;2023-08-24T05:37:24;18.60;;;9.93;;
37355;SDS011;48747;50.250;18.848;2023-08-24T05:39:27;21.07;;;9.03;;
37355;SDS011;48747;50.250;18.848;2023-08-24T05:41:30;21.62;;;10.58;;
37355;SDS011;48747;50.250;18.848;2023-08-24T05:43:33;18.05;;;10.53;;
37355;SDS011;48747;50.250;18.848;2023-08-24T05:45:36;18.60;;;9.75;;
37355;SDS011;48747;50.250;18.848;2023-08-24T05:47:40;24.95;;;10.23;;
37355;SDS011;48747;50.250;18.848;2023-08-24T05:49:43;25.55;;;11.43;;
37355;SDS011;48747;50.250;18.848;2023-08-24T05:51:49;21.42;;;10.48;;
37355;SDS011;48747;50.250;18.848;2023-08-24T05:53:54;20.60;;;10.28;;
37355;SDS011;48747;50.250;18.848;2023-08-24T05:55:59;19.50;;;10.65;;
37355;SDS011;48747;50.250;18.848;2023-08-24T05:58:02;18.07;;;10.80;;
37355;SDS011;48747;50.250;18.848;2023-08-24T06:00:05;22.10;;;11.63;;
37355;SDS011;48747;50.250;18.848;2023-08-24T06:02:11;20.37;;;11.05;;
37355;SDS011;48747;50.250;18.848;2023-08-24T06:04:14;18.98;;;10.82;;
37355;SDS011;48747;50.250;18.848;2023-08-24T06:06:17;23.25;;;11.05;;
37355;SDS011;48747;50.250;18.848;2023-08-24T06:08:20;21.93;;;11.05;;
37355;SDS011;48747;50.250;18.848;2023-08-24T06:10:23;25.17;;;11.78;;
37355;SDS011;48747;50.250;18.848;2023-08-24T06:12:28;18.42;;;11.40;;
37355;SDS011;48747;50.250;18.848;2023-08-24T06:14:31;18.95;;;11.28;;
37355;SDS011;48747;50.250;18.848;2023-08-24T06:16:34;20.12;;;10.53;;
37355;SDS011;48747;50.250;18.848;2023-08-24T06:18:37;17.60;;;10.70;;
37355;SDS011;48747;50.250;18.848;2023-08-24T06:20:40;28.05;;;11.63;;
37355;SDS011;48747;50.250;18.848;2023-08-24T06:22:43;19.82;;;11.05;;
37355;SDS011;48747;50.250;18.848;2023-08-24T06:24:46;16.35;;;10.95;;
37355;SDS011;48747;50.250;18.848;2023-08-24T06:26:49;20.20;;;11.40;;
37355;SDS011;48747;50.250;18.848;2023-08-24T06:28:52;19.77;;;11.33;;
37355;SDS011;48747;50.250;18.848;2023-08-24T06:30:55;20.43;;;11.00;;
37355;SDS011;48747;50.250;18.848;2023-08-24T06:32:58;19.80;;;11.10;;
37355;SDS011;48747;50.250;18.848;2023-08-24T06:35:01;18.75;;;11.35;;
37355;SDS011;48747;50.250;18.848;2023-08-24T06:37:04;19.52;;;10.80;;
37355;SDS011;48747;50.250;18.848;2023-08-24T06:39:08;19.73;;;10.70;;
37355;SDS011;48747;50.250;18.848;2023-08-24T06:41:11;17.77;;;10.98;;
37355;SDS011;48747;50.250;18.848;2023-08-24T06:43:14;19.10;;;10.82;;
37355;SDS011;48747;50.250;18.848;2023-08-24T06:45:17;17.98;;;11.00;;
37355;SDS011;48747;50.250;18.848;2023-08-24T06:47:20;18.02;;;11.75;;
37355;SDS011;48747;50.250;18.848;2023-08-24T06:49:23;18.95;;;11.35;;
37355;SDS011;48747;50.250;18.848;2023-08-24T06:51:27;26.20;;;13.32;;
37355;SDS011;48747;50.250;18.848;2023-08-24T06:53:30;21.52;;;12.53;;
37355;SDS011;48747;50.250;18.848;2023-08-24T06:55:33;21.85;;;11.65;;
37355;SDS011;48747;50.250;18.848;2023-08-24T06:57:38;23.05;;;12.07;;
37355;SDS011;48747;50.250;18.848;2023-08-24T06:59:41;23.40;;;12.63;;
37355;SDS011;48747;50.250;18.848;2023-08-24T07:01:44;23.80;;;13.25;;
37355;SDS011;48747;50.250;18.848;2023-08-24T07:03:48;27.75;;;14.28;;
37355;SDS011;48747;50.250;18.848;2023-08-24T07:05:51;25.55;;;12.88;;
37355;SDS011;48747;50.250;18.848;2023-08-24T07:07:55;22.70;;;11.20;;
37355;SDS011;48747;50.250;18.848;2023-08-24T07:09:58;20.95;;;11.40;;
37355;SDS011;48747;50.250;18.848;2023-08-24T07:12:02;21.20;;;11.80;;
37355;SDS011;48747;50.250;18.848;2023-08-24T07:14:09;22.98;;;12.20;;
37355;SDS011;48747;50.250;18.848;2023-08-24T07:16:11;16.67;;;11.40;;
37355;SDS011;48747;50.250;18.848;2023-08-24T07:18:14;20.77;;;11.73;;
37355;SDS011;48747;50.250;18.848;2023-08-24T07:22:44;25.17;;;10.70;;
37355;SDS011;48747;50.250;18.848;2023-08-24T07:24:47;22.17;;;11.25;;
37355;SDS011;48747;50.250;18.848;2023-08-24T07:26:52;19.15;;;9.55;;
37355;SDS011;48747;50.250;18.848;2023-08-24T07:28:55;17.77;;;10.00;;
37355;SDS011;48747;50.250;18.848;2023-08-24T07:30:59;16.37;;;9.25;;
37355;SDS011;48747;50.250;18.848;2023-08-24T07:33:11;18.40;;;9.73;;
37355;SDS011;48747;50.250;18.848;2023-08-24T07:35:14;17.75;;;9.48;;
37355;SDS011;48747;50.250;18.848;2023-08-24T07:37:18;16.60;;;8.15;;
37355;SDS011;48747;50.250;18.848;2023-08-24T07:39:21;18.75;;;7.80;;
37355;SDS011;48747;50.250;18.848;2023-08-24T07:41:24;13.00;;;7.22;;
37355;SDS011;48747;50.250;18.848;2023-08-24T07:43:27;13.48;;;7.75;;
37355;SDS011;48747;50.250;18.848;2023-08-24T07:45:30;13.53;;;7.58;;
37355;SDS011;48747;50.250;18.848;2023-08-24T07:47:34;15.50;;;6.70;;
37355;SDS011;48747;50.250;18.848;2023-08-24T07:49:37;12.82;;;7.00;;
37355;SDS011;48747;50.250;18.848;2023-08-24T07:51:45;14.90;;;7.30;;
37355;SDS011;48747;50.250;18.848;2023-08-24T07:53:48;16.70;;;7.80;;
37355;SDS011;48747;50.250;18.848;2023-08-24T07:55:54;13.10;;;7.47;;
37355;SDS011;48747;50.250;18.848;2023-08-24T07:58:00;12.58;;;6.83;;
37355;SDS011;48747;50.250;18.848;2023-08-24T08:00:03;11.35;;;6.67;;
37355;SDS011;48747;50.250;18.848;2023-08-24T08:02:07;13.13;;;7.12;;
37355;SDS011;48747;50.250;18.848;2023-08-24T08:04:10;15.65;;;7.40;;
37355;SDS011;48747;50.250;18.848;2023-08-24T08:06:13;14.68;;;7.17;;
37355;SDS011;48747;50.250;18.848;2023-08-24T08:08:16;13.15;;;7.70;;
37355;SDS011;48747;50.250;18.848;2023-08-24T08:10:20;12.35;;;7.05;;
37355;SDS011;48747;50.250;18.848;2023-08-24T08:12:23;14.25;;;6.55;;
37355;SDS011;48747;50.250;18.848;2023-08-24T08:14:26;14.55;;;7.17;;
37355;SDS011;48747;50.250;18.848;2023-08-24T08:16:29;10.58;;;5.78;;
37355;SDS011;48747;50.250;18.848;2023-08-24T08:18:33;12.03;;;6.25;;
37355;SDS011;48747;50.250;18.848;2023-08-24T08:20:37;9.48;;;6.15;;
37355;SDS011;48747;50.250;18.848;2023-08-24T08:22:41;9.98;;;5.45;;
37355;SDS011;48747;50.250;18.848;2023-08-24T08:24:44;10.48;;;6.17;;
37355;SDS011;48747;50.250;18.848;2023-08-24T08:26:47;12.55;;;5.65;;
37355;SDS011;48747;50.250;18.848;2023-08-24T08:28:50;11.38;;;6.10;;
37355;SDS011;48747;50.250;18.848;2023-08-24T08:30:53;9.48;;;5.83;;
37355;SDS011;48747;50.250;18.848;2023-08-24T08:32:56;10.38;;;5.62;;
37355;SDS011;48747;50.250;18.848;2023-08-24T08:34:59;13.00;;;6.05;;
37355;SDS011;48747;50.250;18.848;2023-08-24T08:37:02;12.35;;;5.95;;
37355;SDS011;48747;50.250;18.848;2023-08-24T08:39:06;8.75;;;4.83;;
37355;SDS011;48747;50.250;18.848;2023-08-24T08:41:09;10.93;;;5.78;;
37355;SDS011;48747;50.250;18.848;2023-08-24T08:43:12;11.80;;;5.03;;
37355;SDS011;48747;50.250;18.848;2023-08-24T08:45:15;11.22;;;4.97;;
37355;SDS011;48747;50.250;18.848;2023-08-24T08:47:20;12.25;;;5.08;;
37355;SDS011;48747;50.250;18.848;2023-08-24T08:49:24;13.25;;;5.90;;
37355;SDS011;48747;50.250;18.848;2023-08-24T08:51:27;12.50;;;6.67;;
37355;SDS011;48747;50.250;18.848;2023-08-24T08:53:31;11.30;;;6.08;;
37355;SDS011;48747;50.250;18.848;2023-08-24T08:55:35;14.10;;;6.40;;
37355;SDS011;48747;50.250;18.848;2023-08-24T08:57:38;10.98;;;5.53;;
37355;SDS011;48747;50.250;18.848;2023-08-24T08:59:44;13.50;;;6.25;;
37355;SDS011;48747;50.250;18.848;2023-08-24T09:01:48;15.35;;;6.45;;
37355;SDS011;48747;50.250;18.848;2023-08-24T09:03:52;12.00;;;5.90;;
37355;SDS011;48747;50.250;18.848;2023-08-24T09:05:56;13.90;;;5.50;;
37355;SDS011;48747;50.250;18.848;2023-08-24T09:07:59;13.28;;;6.00;;
37355;SDS011;48747;50.250;18.848;2023-08-24T09:10:04;17.37;;;5.58;;
37355;SDS011;48747;50.250;18.848;2023-08-24T09:12:09;13.55;;;5.55;;
37355;SDS011;48747;50.250;18.848;2023-08-24T09:14:12;11.73;;;5.25;;
37355;SDS011;48747;50.250;18.848;2023-08-24T09:16:15;11.30;;;4.90;;
37355;SDS011;48747;50.250;18.848;2023-08-24T09:18:19;10.60;;;5.33;;
37355;SDS011;48747;50.250;18.848;2023-08-24T09:20:23;11.40;;;4.28;;
37355;SDS011;48747;50.250;18.848;2023-08-24T09:22:34;10.82;;;4.25;;
37355;SDS011;48747;50.250;18.848;2023-08-24T09:24:39;8.55;;;3.95;;
37355;SDS011;48747;50.250;18.848;2023-08-24T09:26:42;8.35;;;4.22;;
37355;SDS011;48747;50.250;18.848;2023-08-24T09:28:45;7.90;;;4.22;;
37355;SDS011;48747;50.250;18.848;2023-08-24T09:30:49;9.40;;;4.10;;
37355;SDS011;48747;50.250;18.848;2023-08-24T09:32:55;6.62;;;3.42;;
37355;SDS011;48747;50.250;18.848;2023-08-24T09:35:06;9.53;;;3.92;;
37355;SDS011;48747;50.250;18.848;2023-08-24T09:37:13;10.63;;;3.90;;
37355;SDS011;48747;50.250;18.848;2023-08-24T09:39:17;10.35;;;4.30;;
37355;SDS011;48747;50.250;18.848;2023-08-24T09:41:20;11.35;;;4.87;;
37355;SDS011;48747;50.250;18.848;2023-08-24T09:43:23;11.57;;;5.00;;
37355;SDS011;48747;50.250;18.848;2023-08-24T09:45:27;13.48;;;4.70;;
37355;SDS011;48747;50.250;18.848;2023-08-24T09:47:30;10.28;;;4.90;;
37355;SDS011;48747;50.250;18.848;2023-08-24T09:49:33;11.08;;;4.80;;
37355;SDS011;48747;50.250;18.848;2023-08-24T09:51:36;11.55;;;4.08;;
37355;SDS011;48747;50.250;18.848;2023-08-24T09:53:41;5.25;;;2.65;;
37355;SDS011;48747;50.250;18.848;2023-08-24T09:55:48;5.42;;;2.45;;
37355;SDS011;48747;50.250;18.848;2023-08-24T09:57:52;4.87;;;2.10;;
37355;SDS011;48747;50.250;18.848;2023-08-24T09:59:58;5.58;;;2.17;;
37355;SDS011;48747;50.250;18.848;2023-08-24T10:02:01;5.25;;;2.52;;
37355;SDS011;48747;50.250;18.848;2023-08-24T10:04:06;7.78;;;2.50;;
37355;SDS011;48747;50.250;18.848;2023-08-24T10:06:11;4.75;;;2.83;;
37355;SDS011;48747;50.250;18.848;2023-08-24T10:08:15;4.35;;;2.40;;
37355;SDS011;48747;50.250;18.848;2023-08-24T10:10:25;4.60;;;2.30;;
37355;SDS011;48747;50.250;18.848;2023-08-24T10:12:31;4.72;;;2.33;;
37355;SDS011;48747;50.250;18.848;2023-08-24T10:14:37;5.12;;;2.52;;
37355;SDS011;48747;50.250;18.848;2023-08-24T10:16:58;6.20;;;2.60;;
37355;SDS011;48747;50.250;18.848;2023-08-24T10:19:01;7.37;;;2.40;;
37355;SDS011;48747;50.250;18.848;2023-08-24T10:21:05;4.08;;;2.65;;
37355;SDS011;48747;50.250;18.848;2023-08-24T10:23:13;3.67;;;2.22;;
37355;SDS011;48747;50.250;18.848;2023-08-24T10:25:18;4.50;;;2.60;;
37355;SDS011;48747;50.250;18.848;2023-08-24T10:27:22;7.58;;;3.17;;
37355;SDS011;48747;50.250;18.848;2023-08-24T10:29:25;4.62;;;2.77;;
37355;SDS011;48747;50.250;18.848;2023-08-24T10:31:31;6.10;;;2.85;;
37355;SDS011;48747;50.250;18.848;2023-08-24T10:33:35;8.50;;;3.20;;
37355;SDS011;48747;50.250;18.848;2023-08-24T10:35:39;10.20;;;3.50;;
37355;SDS011;48747;50.250;18.848;2023-08-24T10:37:46;7.87;;;3.20;;
37355;SDS011;48747;50.250;18.848;2023-08-24T10:39:49;6.20;;;3.27;;
37355;SDS011;48747;50.250;18.848;2023-08-24T10:41:52;10.08;;;3.00;;
37355;SDS011;48747;50.250;18.848;2023-08-24T10:44:05;7.00;;;3.02;;
37355;SDS011;48747;50.250;18.848;2023-08-24T10:46:12;6.22;;;2.77;;
37355;SDS011;48747;50.250;18.848;2023-08-24T10:48:18;6.12;;;2.80;;
37355;SDS011;48747;50.250;18.848;2023-08-24T10:50:21;7.25;;;2.85;;
37355;SDS011;48747;50.250;18.848;2023-08-24T10:52:25;6.08;;;2.87;;
37355;SDS011;48747;50.250;18.848;2023-08-24T10:54:37;8.63;;;3.20;;
37355;SDS011;48747;50.250;18.848;2023-08-24T10:56:43;11.25;;;3.60;;
37355;SDS011;48747;50.250;18.848;2023-08-24T11:00:55;4.87;;;3.27;;
37355;SDS011;48747;50.250;18.848;2023-08-24T11:02:59;6.92;;;3.30;;
37355;SDS011;48747;50.250;18.848;2023-08-24T11:05:05;8.43;;;2.92;;
37355;SDS011;48747;50.250;18.848;2023-08-24T11:07:10;7.37;;;3.40;;
37355;SDS011;48747;50.250;18.848;2023-08-24T11:09:16;7.50;;;3.33;;
37355;SDS011;48747;50.250;18.848;2023-08-24T11:11:22;5.22;;;3.08;;
37355;SDS011;48747;50.250;18.848;2023-08-24T11:13:28;10.35;;;3.87;;
37355;SDS011;48747;50.250;18.848;2023-08-24T11:17:41;8.48;;;4.00;;
37355;SDS011;48747;50.250;18.848;2023-08-24T11:19:51;8.73;;;3.70;;
37355;SDS011;48747;50.250;18.848;2023-08-24T11:21:56;6.62;;;3.75;;
37355;SDS011;48747;50.250;18.848;2023-08-24T11:24:01;9.50;;;4.03;;
37355;SDS011;48747;50.250;18.848;2023-08-24T11:26:05;8.10;;;3.92;;
37355;SDS011;48747;50.250;18.848;2023-08-24T11:28:08;5.60;;;3.40;;
37355;SDS011;48747;50.250;18.848;2023-08-24T11:30:11;6.70;;;3.20;;
37355;SDS011;48747;50.250;18.848;2023-08-24T11:32:14;8.10;;;3.60;;
37355;SDS011;48747;50.250;18.848;2023-08-24T11:34:17;7.22;;;3.87;;
37355;SDS011;48747;50.250;18.848;2023-08-24T11:36:20;7.67;;;3.20;;
37355;SDS011;48747;50.250;18.848;2023-08-24T11:38:24;6.15;;;3.17;;
37355;SDS011;48747;50.250;18.848;2023-08-24T11:40:29;5.53;;;3.40;;
37355;SDS011;48747;50.250;18.848;2023-08-24T11:42:35;7.22;;;3.65;;
37355;SDS011;48747;50.250;18.848;2023-08-24T11:44:45;8.10;;;3.40;;
37355;SDS011;48747;50.250;18.848;2023-08-24T11:46:52;6.17;;;3.35;;
37355;SDS011;48747;50.250;18.848;2023-08-24T11:48:57;6.12;;;3.62;;
37355;SDS011;48747;50.250;18.848;2023-08-24T11:51:01;7.90;;;2.83;;
37355;SDS011;48747;50.250;18.848;2023-08-24T11:53:06;6.58;;;3.27;;
37355;SDS011;48747;50.250;18.848;2023-08-24T11:55:09;5.40;;;3.45;;
37355;SDS011;48747;50.250;18.848;2023-08-24T11:57:13;8.05;;;3.55;;
37355;SDS011;48747;50.250;18.848;2023-08-24T11:59:16;6.40;;;3.50;;
37355;SDS011;48747;50.250;18.848;2023-08-24T12:01:20;8.53;;;3.80;;
37355;SDS011;48747;50.250;18.848;2023-08-24T12:03:24;6.78;;;3.52;;
37355;SDS011;48747;50.250;18.848;2023-08-24T12:05:27;6.05;;;3.98;;
37355;SDS011;48747;50.250;18.848;2023-08-24T12:07:30;5.70;;;3.87;;
37355;SDS011;48747;50.250;18.848;2023-08-24T12:09:33;7.33;;;3.83;;
37355;SDS011;48747;50.250;18.848;2023-08-24T12:11:36;8.45;;;4.00;;
37355;SDS011;48747;50.250;18.848;2023-08-24T12:13:46;7.35;;;3.62;;
37355;SDS011;48747;50.250;18.848;2023-08-24T12:15:52;7.10;;;3.47;;
37355;SDS011;48747;50.250;18.848;2023-08-24T12:17:56;8.75;;;3.85;;